Time;durP1;ratioP1;P1;durP2;ratioP2;P2;SDS_P1;SDS_P2;PMS_P1;PMS_P2;Temp;Humidity;BMP_temperature;BMP_pressure;BME280_temperature;BME280_humidity;BME280_pressure;Samples;Min_cycle;Max_cycle;Signal;HPM_P1;HPM_P2
2021/06/22 00:00:58;;;;;;;7.53;4.13;;;;;;;24.61;57.85;94705.56;5067126;28;20236;-75
2021/06/22 00:03:24;;;;;;;8.68;4.07;;;;;;;24.60;58.24;94715.00;5066708;28;20135;-75
2021/06/22 00:05:49;;;;;;;6.07;3.78;;;;;;;24.56;58.04;94720.06;5067184;28;20028;-74
2021/06/22 00:08:15;;;;;;;6.05;3.90;;;;;;;24.54;58.49;94712.41;5066948;28;20024;-75
2021/06/22 00:10:40;;;;;;;7.53;4.60;;;;;;;24.53;58.40;94721.09;5067551;28;20518;-75
2021/06/22 00:13:06;;;;;;;5.68;3.90;;;;;;;24.50;58.51;94711.22;5066420;28;20406;-75
2021/06/22 00:15:32;;;;;;;5.10;4.00;;;;;;;24.51;58.67;94707.22;5066991;28;20033;-75
2021/06/22 00:17:58;;;;;;;4.85;4.20;;;;;;;24.52;58.39;94714.16;5066485;28;20038;-75
2021/06/22 00:20:24;;;;;;;8.05;3.97;;;;;;;24.51;58.17;94724.34;5065643;28;20025;-75
2021/06/22 00:22:49;;;;;;;6.50;4.15;;;;;;;24.52;58.63;94725.09;5048694;28;20032;-75
2021/06/22 00:25:18;;;;;;;7.40;4.10;;;;;;;24.54;58.35;94717.09;5066779;28;20025;-75
2021/06/22 00:27:43;;;;;;;6.03;4.05;;;;;;;24.52;58.39;94719.63;5066412;28;20422;-75
2021/06/22 00:30:09;;;;;;;9.85;4.00;;;;;;;24.48;58.52;94713.72;5065886;28;20029;-75
2021/06/22 00:32:35;;;;;;;7.20;4.50;;;;;;;24.48;59.00;94713.72;5066724;28;20111;-74
2021/06/22 00:35:00;;;;;;;7.22;4.40;;;;;;;24.49;58.81;94715.22;5066667;28;20024;-75
2021/06/22 00:37:26;;;;;;;6.78;4.00;;;;;;;24.47;59.15;94712.28;5066661;28;20032;-75
2021/06/22 00:39:51;;;;;;;6.03;4.00;;;;;;;24.43;58.83;94695.47;5066786;28;20021;-75
2021/06/22 00:42:17;;;;;;;6.18;4.45;;;;;;;24.45;59.31;94687.47;5048479;28;20482;-75
2021/06/22 00:44:47;;;;;;;5.50;4.03;;;;;;;24.45;58.77;94682.03;5066532;28;20041;-75
2021/06/22 00:47:12;;;;;;;5.68;4.38;;;;;;;24.46;58.63;94683.50;5066775;28;20125;-74
2021/06/22 00:49:38;;;;;;;6.63;4.60;;;;;;;24.46;58.82;94688.97;5066368;28;20032;-75
2021/06/22 00:52:03;;;;;;;6.70;4.82;;;;;;;24.48;58.61;94686.44;5066933;28;20410;-75
2021/06/22 00:54:29;;;;;;;7.20;4.68;;;;;;;24.44;59.22;94686.03;5066705;28;20477;-75
2021/06/22 00:56:54;;;;;;;5.20;4.13;;;;;;;23.94;59.01;94612.47;5066654;28;20024;-75
2021/06/22 00:59:20;;;;;;;5.82;4.35;;;;;;;24.42;59.19;94683.06;5032377;28;20085;-75
2021/06/22 01:01:45;;;;;;;7.70;4.65;;;;;;;24.43;59.18;94690.00;5066010;28;20051;-75
2021/06/22 01:04:11;;;;;;;6.97;4.50;;;;;;;24.44;59.07;94686.03;5066404;28;20118;-75
2021/06/22 01:06:36;;;;;;;5.32;4.10;;;;;;;24.24;59.18;94667.47;5066058;28;20395;-75
2021/06/22 01:09:04;;;;;;;5.47;4.15;;;;;;;24.31;58.66;94672.34;5045055;28;20033;-75
2021/06/22 01:11:30;;;;;;;6.53;4.70;;;;;;;24.49;58.78;94698.84;5064754;28;20027;-75
2021/06/22 01:13:55;;;;;;;7.55;4.55;;;;;;;24.48;59.07;94680.97;5066465;28;20780;-75
2021/06/22 01:16:22;;;;;;;6.68;5.05;;;;;;;24.45;58.91;94676.56;5066120;28;20036;-75
2021/06/22 01:18:47;;;;;;;6.72;4.90;;;;;;;24.44;58.94;94675.09;5065981;28;20032;-75
2021/06/22 01:21:13;;;;;;;7.43;4.35;;;;;;;24.42;59.09;94672.16;5066407;28;20016;-74
2021/06/22 01:23:39;;;;;;;6.18;4.60;;;;;;;24.38;58.95;94658.09;5066193;28;20414;-74
2021/06/22 01:26:04;;;;;;;8.30;4.55;;;;;;;24.37;59.28;94670.25;5066038;28;20517;-75
2021/06/22 01:28:30;;;;;;;6.95;4.53;;;;;;;24.39;59.09;94673.19;5047734;28;20550;-75
2021/06/22 01:30:55;;;;;;;7.10;4.15;;;;;;;24.38;58.82;94660.81;5066493;28;20484;-75
2021/06/22 01:33:21;;;;;;;9.20;5.00;;;;;;;24.39;58.97;94673.19;5070094;28;20031;-75
2021/06/22 01:35:49;;;;;;;6.88;4.80;;;;;;;24.36;58.56;94668.78;5069387;28;20020;-75
2021/06/22 01:38:15;;;;;;;7.50;4.90;;;;;;;24.37;58.95;94665.53;5048180;28;20047;-73
2021/06/22 01:40:45;;;;;;;7.65;4.97;;;;;;;24.33;59.51;94672.56;5069718;28;20016;-74
2021/06/22 01:43:10;;;;;;;5.55;4.22;;;;;;;24.32;59.18;94673.81;5069293;28;20461;-75
2021/06/22 01:45:36;;;;;;;6.93;4.68;;;;;;;24.28;59.62;94667.91;5069800;28;20082;-75
2021/06/22 01:48:01;;;;;;;8.25;5.30;;;;;;;24.22;59.55;94669.28;5069670;28;20406;-74
2021/06/22 01:50:27;;;;;;;6.97;4.70;;;;;;;24.25;59.32;94679.88;5069360;28;20020;-75
2021/06/22 01:52:52;;;;;;;8.90;5.30;;;;;;;24.22;59.68;94675.47;5069721;28;20103;-75
2021/06/22 01:58:03;;;;;;;7.30;4.75;;;;;;;24.22;59.94;94694.56;5069408;28;20508;-75
2021/06/22 02:00:29;;;;;;;6.68;4.47;;;;;;;24.20;59.77;94699.81;5069717;28;20047;-75
2021/06/22 02:02:54;;;;;;;7.18;4.78;;;;;;;24.18;59.92;94702.31;5067999;28;20535;-75
2021/06/22 02:05:20;;;;;;;8.20;4.75;;;;;;;24.17;60.04;94703.59;5069209;28;20032;-75
2021/06/22 02:07:45;;;;;;;6.65;4.85;;;;;;;24.16;59.51;94704.84;5069180;28;20452;-75
2021/06/22 02:10:11;;;;;;;9.40;4.45;;;;;;;24.15;59.60;94703.34;5069613;28;20028;-75
2021/06/22 02:12:37;;;;;;;7.63;4.65;;;;;;;24.14;59.52;94701.91;5069133;28;20020;-75
2021/06/22 02:15:04;;;;;;;5.97;4.50;;;;;;;24.13;60.14;94692.25;5069396;28;20024;-75
2021/06/22 02:17:29;;;;;;;8.15;4.65;;;;;;;24.12;59.99;94682.56;5068642;28;20036;-75
2021/06/22 02:19:54;;;;;;;8.73;4.47;;;;;;;24.09;59.66;94689.06;5069094;28;20559;-75
2021/06/22 02:22:20;;;;;;;5.97;4.65;;;;;;;24.11;59.92;94691.28;5068800;28;20758;-75
2021/06/22 02:24:46;;;;;;;6.00;4.57;;;;;;;24.06;59.93;94695.56;5068995;28;20414;-75
2021/06/22 02:27:28;;;;;;;8.40;5.07;;;;;;;24.03;60.08;94691.16;5068872;28;20407;-76
2021/06/22 02:29:53;;;;;;;6.22;4.50;;;;;;;23.84;59.89;94661.75;5068666;28;20077;-76
2021/06/22 02:32:19;;;;;;;10.70;4.80;;;;;;;24.04;59.77;94676.28;5046916;28;20044;-75
2021/06/22 02:34:44;;;;;;;6.72;5.20;;;;;;;24.04;60.22;94679.00;5069119;28;20025;-75
2021/06/22 02:37:10;;;;;;;7.00;4.60;;;;;;;23.79;59.92;94644.22;5068145;28;20086;-75
2021/06/22 02:39:35;;;;;;;5.82;4.57;;;;;;;24.03;60.38;94682.97;5051022;28;20693;-75
2021/06/22 02:42:01;;;;;;;7.90;4.60;;;;;;;23.93;60.53;94671.00;5068621;28;20498;-75
2021/06/22 02:44:27;;;;;;;6.47;4.93;;;;;;;24.00;59.83;94667.66;5067373;28;20022;-75
2021/06/22 02:46:52;;;;;;;9.27;4.68;;;;;;;24.02;59.86;94678.78;5067177;28;20040;-75
2021/06/22 02:49:18;;;;;;;5.65;4.43;;;;;;;24.01;60.01;94677.31;5068293;28;20029;-76
2021/06/22 02:51:43;;;;;;;7.88;5.47;;;;;;;23.86;59.66;94659.25;5050326;28;20325;-75
2021/06/22 02:54:08;;;;;;;8.77;5.10;;;;;;;24.09;60.24;94689.06;5033623;28;20029;-75
2021/06/22 02:56:34;;;;;;;7.90;4.78;;;;;;;23.80;60.06;94653.16;5068381;28;20028;-75
2021/06/22 02:58:59;;;;;;;6.68;5.00;;;;;;;24.05;60.38;94682.44;5049920;28;20024;-75
2021/06/22 03:01:25;;;;;;;5.85;4.72;;;;;;;24.05;60.10;94683.22;5068434;28;20013;-76
2021/06/22 03:03:50;;;;;;;6.85;4.82;;;;;;;24.06;60.05;94690.13;5068355;28;20502;-75
2021/06/22 03:06:16;;;;;;;8.73;4.57;;;;;;;24.08;60.13;94692.31;5068510;28;20036;-75
2021/06/22 03:08:50;;;;;;;9.65;4.82;;;;;;;24.07;60.13;94699.78;5066693;28;20033;-75
2021/06/22 03:11:16;;;;;;;7.43;4.75;;;;;;;24.10;60.00;94696.00;5050416;28;20040;-76
2021/06/22 03:13:41;;;;;;;6.53;5.15;;;;;;;24.10;60.38;94690.56;5067962;28;20110;-75
2021/06/22 03:16:06;;;;;;;6.97;4.95;;;;;;;24.10;60.73;94700.75;5067732;28;20035;-75
2021/06/22 03:18:32;;;;;;;6.55;4.90;;;;;;;24.13;60.38;94705.88;5067719;28;20025;-76
2021/06/22 03:20:57;;;;;;;8.77;5.03;;;;;;;24.11;60.28;94696.72;5066138;28;20025;-75
2021/06/22 03:23:23;;;;;;;5.57;4.47;;;;;;;24.09;60.45;94699.97;5067894;28;20028;-75
2021/06/22 03:25:48;;;;;;;6.07;4.55;;;;;;;24.11;60.58;94704.91;5067772;28;20039;-75
2021/06/22 03:28:14;;;;;;;6.88;4.75;;;;;;;24.15;60.84;94703.34;5067357;28;20028;-75
2021/06/22 03:30:39;;;;;;;8.35;5.45;;;;;;;24.13;60.58;94700.44;5067577;28;20119;-75
2021/06/22 03:33:05;;;;;;;6.35;4.90;;;;;;;24.10;60.63;94701.47;5067385;28;20079;-76
2021/06/22 03:35:30;;;;;;;8.27;5.40;;;;;;;24.09;60.97;94705.44;5067414;28;20051;-75
2021/06/22 03:37:56;;;;;;;6.97;5.38;;;;;;;24.10;60.87;94703.47;5066837;28;20039;-75
2021/06/22 03:40:22;;;;;;;7.70;5.20;;;;;;;24.13;60.95;94700.44;5067330;28;20025;-75
2021/06/22 03:42:47;;;;;;;6.70;4.80;;;;;;;24.18;61.23;94696.13;5067128;28;20068;-75
2021/06/22 03:45:13;;;;;;;7.97;5.25;;;;;;;24.18;60.82;94704.31;5067411;28;20024;-75
2021/06/22 03:47:39;;;;;;;7.03;5.22;;;;;;;23.94;61.05;94671.72;5066788;28;20035;-75
2021/06/22 03:50:05;;;;;;;7.00;4.95;;;;;;;24.18;61.30;94702.31;5049202;28;20056;-75
2021/06/22 03:52:31;;;;;;;7.65;5.18;;;;;;;24.17;61.10;94698.13;5067342;28;20028;-76
2021/06/22 03:54:56;;;;;;;6.45;4.80;;;;;;;24.19;60.95;94698.34;5067189;28;20035;-75
2021/06/22 03:57:22;;;;;;;8.48;5.20;;;;;;;24.20;60.94;94699.81;5066113;28;20341;-75
2021/06/22 03:59:48;;;;;;;7.72;5.18;;;;;;;24.12;61.31;94703.66;5067090;28;20029;-75
2021/06/22 04:02:13;;;;;;;8.82;4.88;;;;;;;24.18;61.14;94718.69;5065951;28;20051;-75
2021/06/22 04:04:39;;;;;;;6.30;5.20;;;;;;;24.16;61.28;94715.75;5066739;28;20044;-75
2021/06/22 04:07:04;;;;;;;7.95;4.80;;;;;;;24.20;61.17;94713.47;5061500;28;20146;-75
2021/06/22 04:09:30;;;;;;;13.32;5.10;;;;;;;24.19;61.08;94717.44;5066830;28;20024;-75
2021/06/22 04:11:56;;;;;;;7.32;5.45;;;;;;;24.16;61.08;94710.28;5067024;28;20024;-75
2021/06/22 04:14:22;;;;;;;7.82;5.03;;;;;;;24.16;61.21;94721.22;5066936;28;20056;-75
2021/06/22 04:16:47;;;;;;;6.68;5.03;;;;;;;24.14;61.41;94723.72;5066436;28;20020;-78
2021/06/22 04:19:13;;;;;;;9.35;5.05;;;;;;;24.17;61.58;94722.69;5066684;28;20086;-77
2021/06/22 04:21:39;;;;;;;10.20;5.20;;;;;;;24.19;60.83;94714.72;5066808;28;20025;-76
2021/06/22 04:24:05;;;;;;;6.22;5.13;;;;;;;24.21;61.24;94728.56;5064910;28;20085;-76
2021/06/22 04:26:30;;;;;;;7.82;4.95;;;;;;;24.22;61.49;94724.59;5059432;28;20036;-76
2021/06/22 04:28:56;;;;;;;6.43;4.85;;;;;;;24.23;61.41;94726.06;5048742;28;20038;-78
2021/06/22 04:31:21;;;;;;;9.13;5.47;;;;;;;24.26;61.70;94727.75;5065558;28;20036;-77
2021/06/22 04:33:47;;;;;;;7.25;4.82;;;;;;;24.29;61.76;94726.72;5064648;28;20036;-83
2021/06/22 04:36:12;;;;;;;6.53;5.25;;;;;;;24.31;61.82;94729.63;5064089;28;20028;-79
2021/06/22 04:38:37;;;;;;;5.90;4.72;;;;;;;24.36;61.40;94735.03;5048899;28;20033;-80
2021/06/22 04:41:03;;;;;;;8.43;5.75;;;;;;;24.44;61.25;94746.09;5066285;28;20090;-76
2021/06/22 04:43:28;;;;;;;7.03;5.35;;;;;;;24.46;61.14;94744.28;5057459;28;20061;-76
2021/06/22 04:45:54;;;;;;;7.85;5.60;;;;;;;24.34;60.66;94704.06;5053779;28;20461;-75
2021/06/22 04:48:19;;;;;;;8.45;5.22;;;;;;;24.53;60.94;94734.75;5054466;28;20044;-74
2021/06/22 04:50:45;;;;;;;8.95;5.50;;;;;;;24.61;60.30;94746.53;5062300;28;20032;-74
2021/06/22 04:53:10;;;;;;;7.97;5.78;;;;;;;24.66;60.20;94745.69;5062435;28;20068;-74
2021/06/22 04:55:36;;;;;;;7.60;5.38;;;;;;;24.78;60.16;94741.47;5051981;28;20032;-74
2021/06/22 04:58:02;;;;;;;7.85;5.20;;;;;;;24.85;60.07;94747.78;5064332;28;20037;-73
2021/06/22 05:00:28;;;;;;;7.50;5.75;;;;;;;24.98;59.63;94750.53;5061023;28;20028;-79
2021/06/22 05:02:54;;;;;;;6.82;5.32;;;;;;;25.09;59.03;94755.78;5060051;28;20059;-74
2021/06/22 05:05:19;;;;;;;8.98;5.43;;;;;;;25.18;58.68;94758.09;5056133;28;20060;-76
2021/06/22 05:07:45;;;;;;;7.70;4.95;;;;;;;25.28;58.64;94756.41;5065612;28;20074;-76
2021/06/22 05:10:11;;;;;;;6.97;5.10;;;;;;;25.35;58.40;94744.81;5068951;28;20108;-72
2021/06/22 05:12:36;;;;;;;10.23;5.82;;;;;;;25.45;58.34;94745.88;5068895;28;20857;-75
2021/06/22 05:15:02;;;;;;;8.88;4.82;;;;;;;25.58;57.90;94743.13;5066913;28;20053;-76
2021/06/22 05:17:27;;;;;;;6.40;5.07;;;;;;;25.74;57.32;94747.50;5061887;28;20048;-77
2021/06/22 05:19:53;;;;;;;8.25;5.07;;;;;;;25.74;57.36;94758.44;5062684;28;20028;-74
2021/06/22 05:22:19;;;;;;;7.68;5.15;;;;;;;25.87;57.04;94756.41;5056576;28;20017;-72
2021/06/22 05:24:44;;;;;;;7.68;4.95;;;;;;;25.91;56.65;94757.53;5061110;28;20025;-74
2021/06/22 05:27:12;;;;;;;9.80;5.05;;;;;;;25.74;57.05;94731.09;5062514;28;20033;-73
2021/06/22 05:29:38;;;;;;;8.73;5.30;;;;;;;25.86;57.68;94739.25;5046593;28;20051;-73
2021/06/22 05:32:04;;;;;;;6.93;4.68;;;;;;;26.12;57.74;94766.50;5060900;28;20112;-71
2021/06/22 05:34:31;;;;;;;8.90;5.18;;;;;;;26.14;57.75;94774.91;5061741;28;20051;-72
2021/06/22 05:36:57;;;;;;;7.10;5.07;;;;;;;26.25;57.18;94774.66;5054839;28;20025;-72
2021/06/22 05:39:22;;;;;;;7.85;4.95;;;;;;;26.30;56.96;94765.59;5059290;28;20493;-76
2021/06/22 05:41:48;;;;;;;5.78;4.88;;;;;;;26.36;57.74;94768.94;5050727;28;20074;-75
2021/06/22 05:44:13;;;;;;;7.80;5.30;;;;;;;26.44;57.71;94769.75;5031748;28;20159;-76
2021/06/22 05:46:39;;;;;;;7.30;5.03;;;;;;;26.46;57.53;94772.69;5033801;28;20105;-75
2021/06/22 05:49:04;;;;;;;11.48;5.72;;;;;;;26.55;56.46;94764.00;5061800;28;20035;-74
2021/06/22 05:51:30;;;;;;;8.77;5.00;;;;;;;26.57;56.57;94761.47;5056969;28;20025;-77
2021/06/22 05:53:55;;;;;;;7.22;5.03;;;;;;;26.71;55.85;94749.13;5067166;28;20027;-79
2021/06/22 05:56:21;;;;;;;7.93;5.03;;;;;;;26.45;55.89;94721.94;5067334;28;20539;-79
2021/06/22 05:58:46;;;;;;;6.88;5.35;;;;;;;26.79;56.05;94756.88;5052632;28;20052;-78
2021/06/22 06:01:11;;;;;;;6.75;5.15;;;;;;;26.81;54.84;94757.06;5065512;28;20040;-78
2021/06/22 06:03:37;;;;;;;8.63;5.10;;;;;;;26.82;54.48;94750.31;5052811;28;20094;-79
2021/06/22 06:06:03;;;;;;;8.50;5.20;;;;;;;26.96;54.10;94754.44;5067696;28;20093;-80
2021/06/22 06:08:29;;;;;;;8.73;5.07;;;;;;;26.91;54.18;94751.88;5068179;28;20103;-77
2021/06/22 06:10:55;;;;;;;8.32;5.45;;;;;;;26.91;54.06;94747.13;5067294;28;20115;-75
2021/06/22 06:13:35;;;;;;;8.70;5.60;;;;;;;26.95;54.43;94752.25;5067126;28;20075;-75
2021/06/22 06:16:01;;;;;;;10.23;5.50;;;;;;;27.07;54.07;94770.63;5039552;28;20021;-75
2021/06/22 06:18:26;;;;;;;7.57;5.15;;;;;;;27.05;53.94;94751.22;5052489;28;20032;-74
2021/06/22 06:20:52;;;;;;;8.93;5.55;;;;;;;27.12;53.92;94763.50;5057461;28;20021;-75
2021/06/22 06:23:18;;;;;;;10.90;5.30;;;;;;;27.08;54.46;94766.59;5060248;28;20036;-75
2021/06/22 06:25:44;;;;;;;8.18;5.50;;;;;;;27.11;53.97;94771.00;5061464;28;20033;-75
2021/06/22 06:28:19;;;;;;;7.07;5.47;;;;;;;27.09;54.08;94772.81;5059729;28;20049;-75
2021/06/22 06:30:45;;;;;;;11.77;5.40;;;;;;;26.99;53.83;94763.59;5050740;28;20036;-75
2021/06/22 06:33:12;;;;;;;13.80;6.85;;;;;;;27.00;54.39;94771.28;5051167;28;20029;-75
2021/06/22 06:35:38;;;;;;;9.27;5.53;;;;;;;27.01;54.40;94772.78;5063803;28;20032;-75
2021/06/22 06:38:04;;;;;;;11.05;5.88;;;;;;;26.97;54.24;94788.81;5060949;28;20046;-74
2021/06/22 06:40:29;;;;;;;13.32;6.05;;;;;;;26.88;54.37;94781.06;5052610;28;20490;-74
2021/06/22 06:42:55;;;;;;;10.02;5.88;;;;;;;26.87;54.39;94784.31;5054913;28;20075;-74
2021/06/22 06:45:21;;;;;;;8.90;5.40;;;;;;;26.81;54.51;94776.25;5052621;28;20020;-74
2021/06/22 06:47:46;;;;;;;10.27;5.55;;;;;;;26.77;54.74;94786.81;5057196;28;20036;-74
2021/06/22 06:50:12;;;;;;;11.88;5.80;;;;;;;26.74;54.91;94780.94;5059973;28;20028;-74
2021/06/22 06:52:37;;;;;;;9.07;5.07;;;;;;;26.68;54.81;94788.56;5059280;28;20048;-74
2021/06/22 06:55:04;;;;;;;8.30;5.28;;;;;;;26.65;54.49;94789.63;5051977;28;20043;-74
2021/06/22 06:57:29;;;;;;;9.48;5.38;;;;;;;26.61;54.70;94794.72;5056469;28;20020;-74
2021/06/22 06:59:55;;;;;;;11.40;6.30;;;;;;;26.61;54.83;94797.47;5054591;28;20504;-74
2021/06/22 07:02:20;;;;;;;10.32;6.13;;;;;;;26.58;55.20;94801.28;5051730;28;20077;-74
2021/06/22 07:04:46;;;;;;;10.80;5.90;;;;;;;26.54;54.83;94798.13;5045114;28;20056;-75
2021/06/22 07:07:11;;;;;;;12.57;4.80;;;;;;;26.50;55.08;94805.94;5051269;28;20029;-75
2021/06/22 07:09:37;;;;;;;8.65;5.05;;;;;;;26.40;55.07;94785.78;5063766;28;20043;-75
2021/06/22 07:12:02;;;;;;;7.72;5.60;;;;;;;26.27;55.31;94766.66;5037820;28;20039;-74
2021/06/22 07:14:28;;;;;;;6.78;4.65;;;;;;;26.42;55.15;94805.16;5056585;28;20040;-74
2021/06/22 07:16:53;;;;;;;10.35;5.03;;;;;;;26.41;54.85;94803.66;5056755;28;20025;-74
2021/06/22 07:19:19;;;;;;;9.85;4.80;;;;;;;26.39;55.32;94806.22;5048080;28;20150;-73
2021/06/22 07:21:45;;;;;;;7.07;5.60;;;;;;;26.38;55.50;94799.25;5046383;28;20025;-74
2021/06/22 07:24:10;;;;;;;10.52;5.30;;;;;;;26.36;55.59;94801.81;4980359;28;20149;-74
2021/06/22 07:26:36;;;;;;;8.73;5.60;;;;;;;26.35;55.68;94794.84;5053444;28;20495;-74
2021/06/22 07:29:02;;;;;;;9.57;6.55;;;;;;;26.33;55.78;94797.41;5055166;28;20083;-74
2021/06/22 07:31:28;;;;;;;8.48;5.70;;;;;;;26.32;55.68;94812.34;5064478;28;20094;-74
2021/06/22 07:33:53;;;;;;;9.70;5.72;;;;;;;26.28;55.89;94782.56;5068986;28;20085;-80
2021/06/22 07:36:18;;;;;;;8.15;5.80;;;;;;;26.37;55.73;94803.28;5067246;28;20418;-75
2021/06/22 07:38:44;;;;;;;10.27;5.93;;;;;;;26.36;55.91;94799.06;5062905;28;20021;-75
2021/06/22 07:41:09;;;;;;;12.07;6.18;;;;;;;26.26;56.02;94781.59;5065893;28;20473;-76
2021/06/22 07:43:35;;;;;;;8.55;5.60;;;;;;;26.34;55.51;94798.88;5066087;28;20020;-76
2021/06/22 07:46:00;;;;;;;9.98;6.05;;;;;;;26.26;55.74;94792.53;5065084;28;20024;-77
2021/06/22 07:48:26;;;;;;;10.27;6.30;;;;;;;26.31;56.40;94800.66;5067400;28;20029;-76
2021/06/22 07:50:51;;;;;;;13.57;7.15;;;;;;;26.35;56.20;94794.84;5048212;28;20032;-76
2021/06/22 07:53:18;;;;;;;8.27;5.10;;;;;;;26.36;56.46;94801.81;5067472;28;20039;-76
2021/06/22 07:55:45;;;;;;;13.73;6.38;;;;;;;26.32;56.61;94801.41;5068802;28;20505;-76
2021/06/22 07:58:10;;;;;;;10.10;6.03;;;;;;;26.32;56.53;94806.88;5068738;28;20029;-76
2021/06/22 08:00:46;;;;;;;10.63;6.20;;;;;;;26.22;56.44;94794.91;5050614;28;20116;-76
2021/06/22 08:03:13;;;;;;;12.93;6.43;;;;;;;26.32;56.50;94801.41;5068145;28;20047;-75
2021/06/22 08:05:38;;;;;;;8.50;6.00;;;;;;;26.32;56.64;94801.41;5040639;28;20579;-76
2021/06/22 08:08:04;;;;;;;12.73;6.03;;;;;;;26.25;56.50;94807.53;5061695;28;20020;-77
2021/06/22 08:10:30;;;;;;;10.18;5.85;;;;;;;26.30;56.57;94806.69;5059521;28;20032;-76
2021/06/22 08:12:57;;;;;;;9.35;5.95;;;;;;;26.15;56.52;94776.38;5045509;28;20115;-75
2021/06/22 08:15:22;;;;;;;8.77;5.90;;;;;;;26.33;56.62;94791.91;5043891;28;20487;-76
2021/06/22 08:17:48;;;;;;;9.75;6.15;;;;;;;26.28;56.44;94779.09;5066173;28;20029;-76
2021/06/22 08:20:14;;;;;;;8.57;5.53;;;;;;;26.22;56.69;94770.25;5050557;28;20077;-75
2021/06/22 08:22:39;;;;;;;8.55;6.38;;;;;;;26.29;56.47;94780.56;5061914;28;20025;-76
2021/06/22 08:25:06;;;;;;;8.57;5.90;;;;;;;26.28;56.38;94790.06;5049028;28;20487;-76
2021/06/22 08:27:31;;;;;;;10.15;5.45;;;;;;;26.21;56.87;94773.53;5055336;28;20032;-76
2021/06/22 08:29:57;;;;;;;12.38;6.25;;;;;;;26.26;56.32;94781.59;5029129;28;20517;-77
2021/06/22 08:32:22;;;;;;;9.60;5.57;;;;;;;26.33;56.92;94783.72;5056844;28;20510;-77
2021/06/22 08:34:47;;;;;;;10.50;6.40;;;;;;;26.25;56.40;94747.28;5066708;28;20033;-77
2021/06/22 08:37:13;;;;;;;10.13;6.70;;;;;;;26.64;56.50;94782.72;5032510;28;20033;-78
2021/06/22 08:39:40;;;;;;;10.73;6.72;;;;;;;26.46;56.79;94767.22;5069217;28;20035;-75
2021/06/22 08:42:07;;;;;;;9.40;6.20;;;;;;;26.47;55.99;94780.38;5069618;28;20133;-78
2021/06/22 08:44:32;;;;;;;11.07;5.85;;;;;;;26.43;56.46;94781.97;5057799;28;20025;-78
2021/06/22 08:46:58;;;;;;;7.70;5.93;;;;;;;26.19;56.45;94754.91;5069955;28;20032;-77
2021/06/22 08:49:24;;;;;;;9.70;6.28;;;;;;;26.33;56.67;94775.50;5036990;28;20028;-78
2021/06/22 08:51:51;;;;;;;12.00;6.40;;;;;;;26.30;56.45;94771.09;5054562;28;20024;-79
2021/06/22 08:54:16;;;;;;;11.70;6.65;;;;;;;26.36;56.49;94785.38;5043304;28;20231;-79
2021/06/22 08:56:42;;;;;;;10.07;6.03;;;;;;;26.36;56.82;94785.38;5064339;28;20542;-76
2021/06/22 08:59:07;;;;;;;9.35;5.75;;;;;;;26.36;56.43;94785.38;5067170;28;20032;-78
2021/06/22 09:01:33;;;;;;;9.50;5.90;;;;;;;26.35;56.58;94779.19;5067060;28;20482;-77
2021/06/22 09:03:58;;;;;;;8.90;6.38;;;;;;;26.36;56.38;94780.63;5070382;28;20056;-83
2021/06/22 09:06:28;;;;;;;8.27;5.75;;;;;;;26.38;56.60;94788.31;5041737;28;20024;-79
2021/06/22 09:08:54;;;;;;;13.50;6.55;;;;;;;26.40;56.46;94783.06;5047817;28;20124;-76
2021/06/22 09:11:20;;;;;;;15.88;7.68;;;;;;;26.11;56.04;94732.19;5070406;28;20056;-86
2021/06/22 09:14:01;;;;;;;13.93;7.10;;;;;;;26.51;55.80;94774.56;5035250;28;20533;-79
2021/06/22 09:16:27;;;;;;;11.80;7.47;;;;;;;26.52;56.50;94771.28;5069532;28;20032;-79
2021/06/22 09:18:53;;;;;;;10.23;6.68;;;;;;;26.67;56.53;94770.69;5068519;28;20039;-76
2021/06/22 09:21:23;;;;;;;10.00;6.88;;;;;;;26.65;56.54;94759.50;5051139;28;20414;-78
2021/06/22 09:23:56;;;;;;;12.30;7.35;;;;;;;26.82;55.83;94783.19;5052304;28;20047;-76
2021/06/22 09:26:23;;;;;;;14.13;7.55;;;;;;;26.89;55.88;94777.06;5040921;28;20116;-74
2021/06/22 09:28:49;;;;;;;13.00;7.25;;;;;;;27.01;56.35;94778.25;5069695;28;20028;-76
2021/06/22 09:31:16;;;;;;;14.25;8.05;;;;;;;26.69;56.29;94725.00;5046307;28;20063;-77
2021/06/22 09:33:51;;;;;;;16.17;7.72;;;;;;;27.19;55.91;94779.25;5035408;28;20032;-81
2021/06/22 09:36:26;;;;;;;13.05;8.52;;;;;;;27.32;55.33;94779.88;5070054;28;20031;-85
2021/06/22 09:39:12;;;;;;;13.57;8.43;;;;;;;27.47;54.56;94782.69;5052771;28;20051;-82
2021/06/22 09:41:42;;;;;;;16.50;8.13;;;;;;;27.26;55.09;94738.16;5066474;28;20120;-85
2021/06/22 09:44:11;;;;;;;;;;;;;;;27.72;54.58;94773.50;5036750;28;20025;-81
2021/06/22 09:46:47;;;;;;;12.40;8.30;;;;;;;27.49;53.81;94717.06;5063247;28;20035;-81
2021/06/22 09:49:15;;;;;;;16.10;8.68;;;;;;;27.97;53.75;94772.50;5050377;28;20055;-79
2021/06/22 09:51:53;;;;;;;17.38;8.80;;;;;;;28.04;53.28;94771.78;5065567;28;20033;-77
2021/06/22 09:54:23;;;;;;;18.40;8.48;;;;;;;28.06;53.65;94769.22;5063336;28;20032;-77
2021/06/22 09:56:55;;;;;;;15.38;9.10;;;;;;;28.12;53.34;94772.56;5058487;28;20441;-74
2021/06/22 09:59:21;;;;;;;18.13;9.32;;;;;;;28.21;53.18;94774.06;5044613;28;20033;-73
2021/06/22 10:01:46;;;;;;;17.52;9.00;;;;;;;28.28;53.21;94779.53;5029095;28;20028;-75
2021/06/22 10:04:14;;;;;;;17.80;8.52;;;;;;;28.34;52.71;94777.34;5065044;28;20171;-74
2021/06/22 10:06:41;;;;;;;16.55;8.68;;;;;;;28.30;52.29;94771.50;5049331;28;20123;-75
2021/06/22 10:09:06;;;;;;;15.23;8.82;;;;;;;28.30;52.47;94760.50;5052602;28;20081;-74
2021/06/22 10:11:40;;;;;;;17.40;8.10;;;;;;;28.37;52.77;94770.75;5060871;28;20033;-76
2021/06/22 10:14:09;;;;;;;15.50;8.55;;;;;;;28.41;52.17;94760.13;5066151;28;20032;-82
2021/06/22 10:16:34;;;;;;;19.50;8.70;;;;;;;28.56;51.77;94754.66;5049955;28;20032;-77
2021/06/22 10:19:01;;;;;;;19.10;8.77;;;;;;;28.42;52.09;94723.88;5067507;28;20048;-83
2021/06/22 10:21:27;;;;;;;18.08;9.10;;;;;;;28.67;51.60;94759.81;5034571;28;20032;-85
2021/06/22 10:23:53;;;;;;;19.55;8.95;;;;;;;28.60;51.45;94746.78;5044579;28;20059;-89
2021/06/22 10:26:19;;;;;;;21.55;9.48;;;;;;;28.74;50.97;94757.81;5026818;28;20028;-76
2021/06/22 10:28:47;;;;;;;16.42;8.85;;;;;;;28.79;50.94;94751.38;5062371;28;20055;-76
2021/06/22 10:31:13;;;;;;;23.38;8.77;;;;;;;28.78;51.44;94743.69;5063729;28;20031;-75
2021/06/22 10:33:38;;;;;;;15.48;8.50;;;;;;;28.75;51.05;94745.50;5066804;28;20058;-73
2021/06/22 10:36:04;;;;;;;18.25;8.77;;;;;;;28.65;51.03;94734.88;5048334;28;20081;-78
2021/06/22 10:38:39;;;;;;;18.58;8.57;;;;;;;28.69;50.97;94746.25;5047968;28;20048;-77
2021/06/22 10:41:05;;;;;;;19.08;8.20;;;;;;;28.66;51.20;94744.59;5048171;28;20032;-77
2021/06/22 10:43:38;;;;;;;17.65;8.77;;;;;;;28.48;50.51;94715.47;5049282;28;20027;-77
2021/06/22 10:46:07;;;;;;;18.08;8.75;;;;;;;28.61;50.90;94745.47;5066801;28;20486;-77
2021/06/22 10:48:43;;;;;;;17.33;8.37;;;;;;;28.54;51.11;94740.75;5067808;28;20452;-76
2021/06/22 10:51:41;;;;;;;19.80;8.70;;;;;;;28.53;51.03;94750.25;5048976;28;20020;-78
2021/06/22 10:54:06;;;;;;;21.33;8.68;;;;;;;28.49;51.77;94738.88;5044685;28;20431;-78
2021/06/22 10:56:32;;;;;;;15.88;8.20;;;;;;;28.24;51.90;94713.25;5067662;28;20025;-78
2021/06/22 10:59:14;;;;;;;19.05;8.38;;;;;;;28.41;51.78;94740.91;5048055;28;20505;-76
2021/06/22 11:01:58;;;;;;;18.50;7.93;;;;;;;28.43;51.91;94738.34;5067808;28;20431;-78
2021/06/22 11:04:24;;;;;;;18.15;8.40;;;;;;;28.37;51.77;94733.03;5048665;28;20086;-75
2021/06/22 11:07:15;;;;;;;22.63;8.50;;;;;;;28.07;51.39;94699.31;5047549;28;20024;-75
2021/06/22 11:09:41;;;;;;;21.73;8.15;;;;;;;28.36;52.02;94736.34;5031537;28;20032;-75
2021/06/22 11:12:19;;;;;;;21.60;8.45;;;;;;;28.34;51.67;94738.88;5065298;28;20025;-77
2021/06/22 11:15:03;;;;;;;20.02;8.15;;;;;;;28.32;51.78;94741.44;5062582;28;20093;-76
2021/06/22 11:17:56;;;;;;;20.08;7.25;;;;;;;28.30;51.46;94744.03;5046290;28;20033;-77
2021/06/22 11:20:22;;;;;;;21.23;8.93;;;;;;;28.27;51.82;94753.34;5044858;28;20601;-77
2021/06/22 11:23:06;;;;;;;13.32;6.75;;;;;;;28.17;51.55;94746.94;5066761;28;20024;-77
2021/06/22 11:25:47;;;;;;;20.08;7.07;;;;;;;28.15;52.22;94733.03;5062876;28;20028;-76
2021/06/22 11:28:13;;;;;;;18.17;7.25;;;;;;;28.03;52.26;94720.91;5061726;28;20107;-77
2021/06/22 11:30:59;;;;;;;17.67;7.45;;;;;;;28.15;52.79;94730.28;5066941;28;20044;-77
2021/06/22 11:33:44;;;;;;;20.98;8.35;;;;;;;28.18;52.23;94734.66;5042120;28;20037;-77